Urb Los Alamos, Puerto Rico
Current Conditions -  °F | °C
As of 4:50 PM on Friday 31 Oct 2014 (Local Time) from TJBQ Reporting Station
Light Rain Light Rain  
Wind Chill: 77°   Ceiling: 2500
Heat Index: 78°   Visibility: 5mi
Dew Point: 75°   Wind: 3mph
Humidity: 94%   Direction: 160°SSE
Pressure: 29.89"   Gusts: NA
Location:  18.3413°N, 66.991°W
Report Text: TJBQ 312050Z 16003KT 5SM -RA BKN025 OVC034 25/24 A2989 RMK RWY08 ATIS V
Loading
Personal Weather Stations






























Interactive Weather Map
Tropical Storm Tracking
New forecast layout! Learn more

10-Day Weather Forecast

Advertisements
Track Severe Weather on mobile